createdAt,value
2019-01-27T00:00:26.419Z,99675.70
2019-01-27T00:02:58.086Z,99666.80
2019-01-27T00:05:29.764Z,99668.78
2019-01-27T00:08:01.452Z,99659.98
2019-01-27T00:10:33.125Z,99658.45
2019-01-27T00:13:04.874Z,99648.64
2019-01-27T00:15:36.631Z,99647.34
2019-01-27T00:18:08.295Z,99646.33
2019-01-27T00:20:40.268Z,99639.79
2019-01-27T00:23:12.002Z,99634.28
2019-01-27T00:25:43.695Z,99629.84
2019-01-27T00:28:16.801Z,99630.75
2019-01-27T00:30:48.511Z,99625.25
2019-01-27T00:33:20.173Z,99624.42
2019-01-27T00:35:51.852Z,99619.25
2019-01-27T00:38:23.531Z,99618.27
2019-01-27T00:40:55.268Z,99614.97
2019-01-27T00:43:26.948Z,99605.56
2019-01-27T00:45:58.610Z,99593.79
2019-01-27T00:48:30.282Z,99596.71
2019-01-27T00:51:01.964Z,99597.66
2019-01-27T00:53:33.639Z,99580.88
2019-01-27T00:56:05.924Z,99584.31
2019-01-27T00:58:37.759Z,99583.77
2019-01-27T01:01:09.450Z,99574.16
2019-01-27T01:03:41.123Z,99574.42
2019-01-27T01:06:12.783Z,99574.83
2019-01-27T01:08:44.438Z,99567.38
2019-01-27T01:11:16.470Z,99570.34
2019-01-27T01:13:48.156Z,99562.61
2019-01-27T01:16:19.820Z,99558.34
2019-01-27T01:18:51.853Z,99556.45
2019-01-27T01:21:23.945Z,99553.48
2019-01-27T01:23:56.010Z,99548.58
2019-01-27T01:26:27.664Z,99543.92
2019-01-27T01:28:59.715Z,99538.95
2019-01-27T01:31:31.718Z,99537.28
2019-01-27T01:34:03.646Z,99533.77
2019-01-27T01:36:35.705Z,99525.05
2019-01-27T01:39:08.683Z,99532.55
2019-01-27T01:41:41.165Z,99521.28
2019-01-27T01:44:13.151Z,99525.06
2019-01-27T01:46:45.528Z,99522.84
2019-01-27T01:49:17.471Z,99521.70
2019-01-27T01:51:49.519Z,99515.55
2019-01-27T01:54:21.534Z,99509.83
2019-01-27T01:56:53.562Z,99503.55
2019-01-27T01:59:26.591Z,99491.83
2019-01-27T02:01:58.518Z,99487.45
2019-01-27T02:04:30.771Z,99479.72
2019-01-27T02:07:02.508Z,99475.55
2019-01-27T02:09:34.200Z,99465.77
2019-01-27T02:12:06.262Z,99463.23
2019-01-27T02:14:38.020Z,99453.39
2019-01-27T02:17:09.686Z,99447.11
2019-01-27T02:19:41.363Z,99438.73
2019-01-27T02:22:13.036Z,99434.67
2019-01-27T02:24:44.720Z,99428.61
2019-01-27T02:27:16.714Z,99425.86
2019-01-27T02:29:48.388Z,99420.40
2019-01-27T02:32:20.137Z,99408.84
2019-01-27T02:34:51.811Z,99397.44
2019-01-27T02:37:23.479Z,99404.30
2019-01-27T02:39:55.140Z,99399.97
2019-01-27T02:42:26.821Z,99395.25
2019-01-27T02:44:58.492Z,99384.00
2019-01-27T02:47:30.200Z,99389.35
2019-01-27T02:50:02.215Z,99385.28
2019-01-27T02:52:34.150Z,99376.52
2019-01-27T02:55:07.917Z,99371.86
2019-01-27T02:57:39.852Z,99374.06
2019-01-27T03:00:20.367Z,99363.59
2019-01-27T03:02:52.029Z,99356.47
2019-01-27T03:05:41.369Z,99354.62
2019-01-27T03:08:13.037Z,99343.44
2019-01-27T03:10:44.712Z,99340.20
2019-01-27T03:13:16.374Z,99342.56
2019-01-27T03:15:48.048Z,99340.92
2019-01-27T03:18:19.801Z,99326.50
2019-01-27T03:20:51.537Z,99327.24
2019-01-27T03:23:23.207Z,99325.16
2019-01-27T03:25:55.231Z,99315.97
2019-01-27T03:28:26.978Z,99317.69
2019-01-27T03:30:58.693Z,99306.55
2019-01-27T03:33:30.407Z,99306.02
2019-01-27T03:36:02.891Z,99303.80
2019-01-27T03:38:34.544Z,99302.10
2019-01-27T03:41:06.246Z,99293.14
2019-01-27T03:43:37.911Z,99286.11
2019-01-27T03:46:09.582Z,99282.66
2019-01-27T03:48:41.262Z,99281.89
2019-01-27T03:51:12.935Z,99272.98
2019-01-27T03:53:44.985Z,99259.76
2019-01-27T03:56:16.642Z,99263.46
2019-01-27T03:58:48.402Z,99263.69
2019-01-27T04:01:20.705Z,99265.48
2019-01-27T04:03:52.379Z,99255.80
2019-01-27T04:06:24.046Z,99247.67
2019-01-27T04:08:55.707Z,99238.83
2019-01-27T04:11:27.446Z,99231.00
2019-01-27T04:13:59.120Z,99230.84
2019-01-27T04:16:30.817Z,99232.78
2019-01-27T04:19:02.541Z,99229.34
2019-01-27T04:21:34.241Z,99228.57
2019-01-27T04:24:05.904Z,99220.09
2019-01-27T04:26:37.571Z,99212.11
2019-01-27T04:29:09.247Z,99211.67
2019-01-27T04:31:40.901Z,99214.80
2019-01-27T04:34:12.778Z,99209.81
2019-01-27T04:36:44.442Z,99205.77
2019-01-27T04:39:16.137Z,99206.88
2019-01-27T04:41:47.797Z,99199.16
2019-01-27T04:44:19.478Z,99197.64
2019-01-27T04:46:51.159Z,99193.33
2019-01-27T04:49:23.091Z,99195.77
2019-01-27T04:51:54.907Z,99183.23
2019-01-27T04:54:26.570Z,99189.70
2019-01-27T04:56:58.318Z,99184.46
2019-01-27T04:59:30.350Z,99181.97
2019-01-27T05:02:02.298Z,99175.55
2019-01-27T05:04:34.536Z,99179.86
2019-01-27T05:07:06.278Z,99177.22
2019-01-27T05:09:38.017Z,99174.30
2019-01-27T05:12:09.696Z,99170.53
2019-01-27T05:14:41.463Z,99174.30
2019-01-27T05:17:13.202Z,99164.55
2019-01-27T05:19:44.866Z,99166.75
2019-01-27T05:22:16.981Z,99157.91
2019-01-27T05:24:48.736Z,99164.81
2019-01-27T05:27:20.407Z,99151.38
2019-01-27T05:29:52.438Z,99149.98
2019-01-27T05:32:24.244Z,99146.89
2019-01-27T05:34:55.904Z,99145.83
2019-01-27T05:37:27.660Z,99142.79
2019-01-27T05:39:59.327Z,99139.30
2019-01-27T05:42:31.004Z,99133.09
2019-01-27T05:45:02.730Z,99128.61
2019-01-27T05:47:34.412Z,99121.50
2019-01-27T05:50:10.547Z,99127.98
2019-01-27T05:52:42.229Z,99124.94
2019-01-27T05:55:21.746Z,99119.05
2019-01-27T05:57:53.386Z,99124.10
2019-01-27T06:00:35.547Z,99116.72
2019-01-27T06:03:07.220Z,99112.67
2019-01-27T06:05:38.903Z,99110.91
2019-01-27T06:08:10.563Z,99110.59
2019-01-27T06:10:42.247Z,99109.02
2019-01-27T06:13:13.907Z,99113.13
2019-01-27T06:15:45.686Z,99108.06
2019-01-27T06:18:17.418Z,99109.45
2019-01-27T06:20:49.100Z,99109.05
2019-01-27T06:23:20.778Z,99101.67
2019-01-27T06:25:52.443Z,99094.75
2019-01-27T06:28:24.115Z,99095.13
2019-01-27T06:30:55.855Z,99089.22
2019-01-27T06:33:29.247Z,99088.46
2019-01-27T06:36:00.912Z,99081.74
2019-01-27T06:38:32.604Z,99080.77
2019-01-27T06:41:04.621Z,99081.42
2019-01-27T06:43:36.298Z,99078.18
2019-01-27T06:46:07.970Z,99071.53
2019-01-27T06:48:39.642Z,99070.84
2019-01-27T06:51:11.310Z,99077.65
2019-01-27T06:53:42.973Z,99071.00
2019-01-27T06:56:14.638Z,99064.69
2019-01-27T06:59:02.877Z,99068.23
2019-01-27T07:01:36.185Z,99065.42
2019-01-27T07:04:09.567Z,99058.20
2019-01-27T07:06:49.051Z,99052.83
2019-01-27T07:09:22.419Z,99045.89
2019-01-27T07:11:55.741Z,99040.87
2019-01-27T07:14:29.039Z,99040.84
2019-01-27T07:17:03.521Z,99038.48
2019-01-27T07:19:52.939Z,99031.54
2019-01-27T07:22:41.311Z,99029.54
2019-01-27T07:25:14.692Z,99030.26
2019-01-27T07:27:55.136Z,99029.49
2019-01-27T07:30:32.523Z,99025.17
2019-01-27T07:33:06.527Z,99025.65
2019-01-27T07:35:56.922Z,99026.83
2019-01-27T07:38:33.676Z,99020.19
2019-01-27T07:41:13.300Z,99023.81
2019-01-27T07:43:55.564Z,99014.19
2019-01-27T07:46:29.549Z,99014.52
2019-01-27T07:49:05.788Z,99018.30
2019-01-27T07:51:39.113Z,99016.77
2019-01-27T07:54:18.142Z,99008.02
2019-01-27T07:56:54.117Z,99015.31
2019-01-27T07:59:43.728Z,99003.98
2019-01-27T08:02:29.185Z,98999.61
2019-01-27T08:05:02.876Z,98986.53
2019-01-27T08:07:36.179Z,98988.94
2019-01-27T08:10:26.369Z,98985.78
2019-01-27T08:13:02.425Z,98981.13
2019-01-27T08:15:47.815Z,98972.91
2019-01-27T08:18:36.481Z,98970.27
2019-01-27T08:21:18.909Z,98969.38
2019-01-27T08:24:01.188Z,98971.59
2019-01-27T08:26:40.574Z,98964.23
2019-01-27T08:29:19.820Z,98970.73
2019-01-27T08:31:53.117Z,98968.99
2019-01-27T08:34:29.183Z,98964.65
2019-01-27T08:37:12.033Z,98969.41
2019-01-27T08:39:45.718Z,98966.55
2019-01-27T08:42:28.435Z,98957.16
2019-01-27T08:45:01.748Z,98959.80
2019-01-27T08:47:33.553Z,98956.79
2019-01-27T08:50:10.127Z,98958.17
2019-01-27T08:52:42.874Z,98954.58
2019-01-27T08:55:14.887Z,98947.08
2019-01-27T08:57:46.549Z,98945.36
2019-01-27T09:00:21.491Z,98940.42
2019-01-27T09:03:03.790Z,98938.40
2019-01-27T09:05:52.154Z,98939.14
2019-01-27T09:08:34.253Z,98930.55
2019-01-27T09:11:07.827Z,98932.72
2019-01-27T09:13:53.393Z,98930.23
2019-01-27T09:16:38.749Z,98926.52
2019-01-27T09:19:12.059Z,98924.94
2019-01-27T09:22:01.783Z,98925.89
2019-01-27T09:24:51.390Z,98924.42
2019-01-27T09:27:33.422Z,98926.24
2019-01-27T09:30:11.732Z,98927.04
2019-01-27T09:32:54.289Z,98925.91
2019-01-27T09:35:30.592Z,98917.91
2019-01-27T09:38:06.610Z,98913.75
2019-01-27T09:40:39.984Z,98917.33
2019-01-27T09:43:19.559Z,98914.33
2019-01-27T09:46:05.384Z,98907.59
2019-01-27T09:48:39.968Z,98910.36
2019-01-27T09:51:13.291Z,98908.42
2019-01-27T09:53:58.841Z,98904.37
2019-01-27T09:56:32.213Z,98898.70
2019-01-27T09:59:05.854Z,98897.34
2019-01-27T10:01:39.279Z,98901.93
2019-01-27T10:04:18.285Z,98901.75
2019-01-27T10:06:51.590Z,98896.95
2019-01-27T10:09:40.628Z,98888.78
2019-01-27T10:12:16.912Z,98888.52
2019-01-27T10:15:05.366Z,98889.20
2019-01-27T10:17:41.751Z,98888.44
2019-01-27T10:20:18.079Z,98892.97
2019-01-27T10:22:54.045Z,98881.25
2019-01-27T10:25:30.038Z,98874.03
2019-01-27T10:28:03.412Z,98876.86
2019-01-27T10:30:53.285Z,98873.94
2019-01-27T10:33:35.768Z,98869.17
2019-01-27T10:36:12.149Z,98863.02
2019-01-27T10:38:45.520Z,98857.52
2019-01-27T10:41:19.223Z,98854.84
2019-01-27T10:43:58.816Z,98850.27
2019-01-27T10:46:37.925Z,98845.72
2019-01-27T10:49:14.152Z,98844.05
2019-01-27T10:51:59.387Z,98839.32
2019-01-27T10:54:32.768Z,98836.73
2019-01-27T10:57:06.057Z,98831.22
2019-01-27T10:59:39.393Z,98830.01
2019-01-27T11:02:15.700Z,98823.89
2019-01-27T11:04:58.240Z,98817.87
2019-01-27T11:07:37.437Z,98823.76
2019-01-27T11:10:14.901Z,98807.87
2019-01-27T11:12:48.267Z,98808.58
2019-01-27T11:15:24.306Z,98806.33
2019-01-27T11:18:03.588Z,98808.90
2019-01-27T11:20:39.986Z,98799.21
2019-01-27T11:23:24.255Z,98797.07
2019-01-27T11:26:14.228Z,98787.34
2019-01-27T11:28:50.611Z,98789.21
2019-01-27T11:31:23.903Z,98784.80
2019-01-27T11:34:12.237Z,98785.58
2019-01-27T11:36:45.617Z,98785.50
2019-01-27T11:39:35.680Z,98783.16
2019-01-27T11:42:27.334Z,98776.05
2019-01-27T11:45:00.698Z,98773.94
2019-01-27T11:47:36.522Z,98765.66
2019-01-27T11:50:19.109Z,98763.27
2019-01-27T11:52:52.487Z,98756.86
2019-01-27T11:55:24.149Z,98750.41
2019-01-27T11:57:56.483Z,98750.48
2019-01-27T12:00:29.776Z,98753.45
2019-01-27T12:03:01.999Z,98750.13
2019-01-27T12:05:33.646Z,98750.49
2019-01-27T12:08:05.327Z,98746.35
2019-01-27T12:10:36.975Z,98738.72
2019-01-27T12:13:08.636Z,98741.31
2019-01-27T12:15:40.462Z,98733.31
2019-01-27T12:18:25.058Z,98736.28
2019-01-27T12:20:56.724Z,98733.28
2019-01-27T12:23:28.370Z,98737.82
2019-01-27T12:26:00.104Z,98735.87
2019-01-27T12:28:31.750Z,98736.31
2019-01-27T12:31:03.415Z,98731.73
2019-01-27T12:33:35.399Z,98725.88
2019-01-27T12:36:07.465Z,98725.52
2019-01-27T12:38:39.129Z,98727.51
2019-01-27T12:41:10.797Z,98727.72
2019-01-27T12:43:42.467Z,98718.70
2019-01-27T12:46:14.121Z,98719.16
2019-01-27T12:48:46.218Z,98712.28
2019-01-27T12:51:18.232Z,98708.78
2019-01-27T12:53:49.857Z,98703.02
2019-01-27T12:56:21.518Z,98697.83
2019-01-27T12:58:53.175Z,98696.61
2019-01-27T13:01:24.943Z,98694.58
2019-01-27T13:03:56.677Z,98691.41
2019-01-27T13:06:28.876Z,98691.38
2019-01-27T13:09:00.521Z,98688.54
2019-01-27T13:11:32.333Z,98688.98
2019-01-27T13:14:04.217Z,98682.94
2019-01-27T13:16:36.363Z,98676.52
2019-01-27T13:19:08.018Z,98683.50
2019-01-27T13:21:39.740Z,98678.23
2019-01-27T13:24:11.405Z,98671.25
2019-01-27T13:26:43.134Z,98679.92
2019-01-27T13:29:14.806Z,98677.57
2019-01-27T13:31:46.731Z,98668.77
2019-01-27T13:34:18.386Z,98673.11
2019-01-27T13:36:50.101Z,98672.70
2019-01-27T13:39:22.156Z,98673.38
2019-01-27T13:41:54.182Z,98676.67
2019-01-27T13:44:25.855Z,98673.86
2019-01-27T13:46:57.503Z,98672.28
2019-01-27T13:49:29.492Z,98668.05
2019-01-27T13:52:01.159Z,98667.45
2019-01-27T13:54:32.887Z,98671.88
2019-01-27T13:57:04.594Z,98671.06
2019-01-27T13:59:36.254Z,98668.06
2019-01-27T14:02:07.931Z,98672.89
2019-01-27T14:04:39.968Z,98676.17
2019-01-27T14:07:11.710Z,98667.81
2019-01-27T14:09:43.675Z,98668.34
2019-01-27T14:12:15.399Z,98668.22
2019-01-27T14:14:47.132Z,98665.95
2019-01-27T14:17:18.866Z,98663.70
2019-01-27T14:19:50.543Z,98660.26
2019-01-27T14:22:22.207Z,98659.92
2019-01-27T14:24:53.935Z,98658.79
2019-01-27T14:27:25.622Z,98658.18
2019-01-27T14:29:57.271Z,98654.86
2019-01-27T14:32:28.965Z,98656.60
2019-01-27T14:35:00.638Z,98659.81
2019-01-27T14:37:32.301Z,98652.66
2019-01-27T14:40:05.486Z,98652.71
2019-01-27T14:42:37.694Z,98653.20
2019-01-27T14:45:18.121Z,98649.63
2019-01-27T14:47:50.188Z,98649.44
2019-01-27T14:50:38.276Z,98649.93
2019-01-27T14:53:10.071Z,98650.54
2019-01-27T14:55:42.058Z,98655.25
2019-01-27T14:58:13.720Z,98650.25
2019-01-27T15:00:46.121Z,98651.27
2019-01-27T15:03:17.779Z,98653.52
2019-01-27T15:05:49.466Z,98646.49
2019-01-27T15:08:21.122Z,98648.45
2019-01-27T15:10:52.769Z,98647.80
2019-01-27T15:13:24.426Z,98646.98
2019-01-27T15:15:56.082Z,98645.97
2019-01-27T15:18:28.088Z,98644.19
2019-01-27T15:21:01.383Z,98639.07
2019-01-27T15:23:33.275Z,98645.12
2019-01-27T15:26:05.078Z,98644.03
2019-01-27T15:28:36.731Z,98641.55
2019-01-27T15:31:08.833Z,98641.76
2019-01-27T15:33:40.798Z,98643.79
2019-01-27T15:36:12.532Z,98641.44
2019-01-27T15:38:46.977Z,98643.95
2019-01-27T15:41:18.813Z,98647.69
2019-01-27T15:43:50.501Z,98646.67
2019-01-27T15:46:22.151Z,98648.54
2019-01-27T15:48:54.095Z,98647.48
2019-01-27T15:51:25.769Z,98644.31
2019-01-27T15:53:58.155Z,98641.68
2019-01-27T15:56:29.826Z,98648.98
2019-01-27T15:59:01.480Z,98647.84
2019-01-27T16:01:33.190Z,98648.42
2019-01-27T16:04:04.840Z,98645.98
2019-01-27T16:06:36.528Z,98646.96
2019-01-27T16:09:08.518Z,98644.69
2019-01-27T16:11:40.173Z,98647.27
2019-01-27T16:14:11.835Z,98644.59
2019-01-27T16:16:43.518Z,98639.94
2019-01-27T16:19:15.162Z,98641.64
2019-01-27T16:21:46.817Z,98648.21
2019-01-27T16:24:20.374Z,98647.33
2019-01-27T16:26:52.066Z,98647.25
2019-01-27T16:29:25.348Z,98648.22
2019-01-27T16:31:57.811Z,98650.50
2019-01-27T16:34:31.128Z,98652.00
2019-01-27T16:37:02.832Z,98650.00
2019-01-27T16:39:34.486Z,98648.59
2019-01-27T16:42:06.146Z,98645.42
2019-01-27T16:44:37.839Z,98648.79
2019-01-27T16:47:09.487Z,98645.18
2019-01-27T16:49:41.694Z,98640.06
2019-01-27T16:52:13.374Z,98643.23
2019-01-27T16:54:45.496Z,98643.52
2019-01-27T16:57:17.212Z,98645.39
2019-01-27T16:59:48.873Z,98646.03
2019-01-27T17:02:20.557Z,98639.38
2019-01-27T17:04:52.225Z,98637.80
2019-01-27T17:07:23.892Z,98640.88
2019-01-27T17:09:55.547Z,98635.61
2019-01-27T17:12:27.607Z,98635.00
2019-01-27T17:14:59.248Z,98636.25
2019-01-27T17:17:30.998Z,98637.67
2019-01-27T17:20:02.997Z,98636.09
2019-01-27T17:22:34.706Z,98637.14
2019-01-27T17:25:10.678Z,98635.36
2019-01-27T17:27:42.400Z,98643.16
2019-01-27T17:30:27.856Z,98646.36
2019-01-27T17:32:59.509Z,98642.17
2019-01-27T17:35:31.218Z,98640.71
2019-01-27T17:38:02.872Z,98636.25
2019-01-27T17:40:34.560Z,98634.27
2019-01-27T17:43:06.206Z,98639.58
2019-01-27T17:45:38.266Z,98641.77
2019-01-27T17:48:09.923Z,98636.98
2019-01-27T17:50:41.585Z,98639.09
2019-01-27T17:53:13.236Z,98639.45
2019-01-27T17:55:45.614Z,98641.12
2019-01-27T17:58:42.515Z,98638.73
2019-01-27T18:01:31.341Z,98639.70
2019-01-27T18:04:04.636Z,98639.94
2019-01-27T18:06:37.949Z,98634.79
2019-01-27T18:09:11.901Z,98644.33
2019-01-27T18:12:00.469Z,98632.56
2019-01-27T18:14:34.063Z,98636.63
2019-01-27T18:17:05.780Z,98637.92
2019-01-27T18:19:37.852Z,98638.89
2019-01-27T18:22:09.569Z,98637.88
2019-01-27T18:24:41.247Z,98639.09
2019-01-27T18:27:12.932Z,98639.02
2019-01-27T18:29:45.286Z,98642.02
2019-01-27T18:32:17.405Z,98637.68
2019-01-27T18:34:49.073Z,98636.51
2019-01-27T18:37:21.028Z,98640.56
2019-01-27T18:39:52.676Z,98633.91
2019-01-27T18:42:24.490Z,98641.53
2019-01-27T18:44:56.154Z,98639.26
2019-01-27T18:47:28.173Z,98635.00
2019-01-27T18:50:00.341Z,98635.16
2019-01-27T18:52:32.059Z,98640.28
2019-01-27T18:55:06.234Z,98632.24
2019-01-27T18:57:39.604Z,98635.45
2019-01-27T19:00:17.013Z,98640.31
2019-01-27T19:02:50.312Z,98642.51
2019-01-27T19:05:39.974Z,98644.20
2019-01-27T19:08:19.465Z,98642.55
2019-01-27T19:10:55.675Z,98647.38
2019-01-27T19:13:29.047Z,98645.42
2019-01-27T19:16:02.345Z,98643.64
2019-01-27T19:18:51.956Z,98648.38
2019-01-27T19:21:33.971Z,98646.56
2019-01-27T19:24:10.720Z,98650.38
2019-01-27T19:26:56.200Z,98652.81
2019-01-27T19:29:35.425Z,98652.64
2019-01-27T19:32:11.420Z,98651.19
2019-01-27T19:34:44.783Z,98645.79
2019-01-27T19:37:23.811Z,98651.02
2019-01-27T19:40:06.732Z,98653.34
2019-01-27T19:42:46.004Z,98655.65
2019-01-27T19:45:22.278Z,98653.54
2019-01-27T19:47:55.591Z,98660.92
2019-01-27T19:50:29.241Z,98658.16
2019-01-27T19:53:08.709Z,98662.14
2019-01-27T19:55:42.262Z,98663.16
2019-01-27T19:58:18.694Z,98668.55
2019-01-27T20:00:52.349Z,98662.95
2019-01-27T20:03:37.884Z,98663.89
2019-01-27T20:06:23.020Z,98662.06
2019-01-27T20:09:02.440Z,98667.94
2019-01-27T20:11:52.046Z,98670.34
2019-01-27T20:14:26.073Z,98670.70
2019-01-27T20:17:24.405Z,98664.38
2019-01-27T20:20:09.461Z,98660.88
2019-01-27T20:22:51.687Z,98666.44
2019-01-27T20:25:36.760Z,98664.53
2019-01-27T20:28:26.315Z,98666.56
2019-01-27T20:31:15.733Z,98665.34
2019-01-27T20:33:51.725Z,98662.67
2019-01-27T20:36:41.283Z,98664.09
2019-01-27T20:39:20.284Z,98661.81
2019-01-27T20:42:09.776Z,98656.62
2019-01-27T20:44:43.083Z,98666.81
2019-01-27T20:47:20.779Z,98669.69
2019-01-27T20:50:03.211Z,98675.45
2019-01-27T20:52:36.529Z,98676.83
2019-01-27T20:55:10.755Z,98676.42
2019-01-27T20:57:44.063Z,98674.64
2019-01-27T21:00:35.567Z,98672.48
2019-01-27T21:03:17.774Z,98674.31
2019-01-27T21:05:51.064Z,98671.88
2019-01-27T21:08:27.144Z,98675.28
2019-01-27T21:11:00.722Z,98679.95
2019-01-27T21:13:34.098Z,98681.41
2019-01-27T21:16:07.411Z,98680.20
2019-01-27T21:18:41.040Z,98683.66
2019-01-27T21:21:12.772Z,98687.42
2019-01-27T21:23:44.576Z,98693.34
2019-01-27T21:26:16.485Z,98686.53
2019-01-27T21:28:48.139Z,98693.75
2019-01-27T21:31:19.810Z,98695.41
2019-01-27T21:33:51.461Z,98698.45
2019-01-27T21:36:23.156Z,98691.23
2019-01-27T21:38:54.810Z,98692.94
2019-01-27T21:41:27.016Z,98694.52
2019-01-27T21:43:58.664Z,98694.89
2019-01-27T21:46:30.335Z,98693.06
2019-01-27T21:49:02.000Z,98696.63
2019-01-27T21:51:33.659Z,98695.30
2019-01-27T21:54:06.001Z,98696.02
2019-01-27T21:56:37.667Z,98695.34
2019-01-27T21:59:09.337Z,98697.69
2019-01-27T22:01:41.016Z,98698.37
2019-01-27T22:04:12.667Z,98699.67
2019-01-27T22:06:44.340Z,98699.59
2019-01-27T22:09:16.060Z,98710.80
2019-01-27T22:11:47.719Z,98706.73
2019-01-27T22:14:19.733Z,98705.76
2019-01-27T22:16:51.378Z,98705.80
2019-01-27T22:19:23.045Z,98712.09
2019-01-27T22:21:54.694Z,98708.23
2019-01-27T22:24:26.722Z,98712.34
2019-01-27T22:26:58.372Z,98710.14
2019-01-27T22:29:30.133Z,98717.89
2019-01-27T22:32:01.783Z,98717.94
2019-01-27T22:34:33.445Z,98720.05
2019-01-27T22:37:05.123Z,98722.84
2019-01-27T22:39:36.846Z,98723.30
2019-01-27T22:42:08.594Z,98726.59
2019-01-27T22:44:40.404Z,98724.35
2019-01-27T22:47:12.136Z,98726.42
2019-01-27T22:49:43.779Z,98726.59
2019-01-27T22:52:15.473Z,98734.13
2019-01-27T22:54:47.154Z,98731.22
2019-01-27T22:57:18.910Z,98735.06
2019-01-27T22:59:50.579Z,98735.23
2019-01-27T23:02:22.236Z,98739.58
2019-01-27T23:04:53.896Z,98744.89
2019-01-27T23:07:25.545Z,98747.61
2019-01-27T23:09:57.221Z,98750.41
2019-01-27T23:12:28.880Z,98751.99
2019-01-27T23:15:00.626Z,98751.50
2019-01-27T23:17:32.570Z,98751.02
2019-01-27T23:20:06.851Z,98753.90
2019-01-27T23:22:38.498Z,98752.64
2019-01-27T23:25:10.168Z,98759.14
2019-01-27T23:27:42.175Z,98753.01
2019-01-27T23:30:13.848Z,98754.71
2019-01-27T23:32:45.854Z,98761.13
2019-01-27T23:35:17.465Z,98761.41
2019-01-27T23:37:49.123Z,98772.04
2019-01-27T23:40:20.782Z,98766.69
2019-01-27T23:42:52.435Z,98780.16
2019-01-27T23:45:24.104Z,98781.25
2019-01-27T23:47:55.776Z,98774.16
2019-01-27T23:50:27.799Z,98779.51
2019-01-27T23:52:59.462Z,98781.42
2019-01-27T23:55:31.128Z,98786.09
2019-01-27T23:58:02.785Z,98790.59
